sensor_id;sensor_type;location;lat;lon;timestamp;temperature;humidity
35325;DHT22;35135;47.510;19.036;2022-11-15T00:01:50;19.60;67.10
35325;DHT22;35135;47.510;19.036;2022-11-15T00:04:16;19.60;67.10
35325;DHT22;35135;47.510;19.036;2022-11-15T00:06:41;19.60;67.10
35325;DHT22;35135;47.510;19.036;2022-11-15T00:09:07;19.60;67.10
35325;DHT22;35135;47.510;19.036;2022-11-15T00:11:33;19.60;67.10
35325;DHT22;35135;47.510;19.036;2022-11-15T00:13:58;19.60;67.10
35325;DHT22;35135;47.510;19.036;2022-11-15T00:16:24;19.60;67.00
35325;DHT22;35135;47.510;19.036;2022-11-15T00:18:50;19.60;67.00
35325;DHT22;35135;47.510;19.036;2022-11-15T00:21:17;19.60;67.00
35325;DHT22;35135;47.510;19.036;2022-11-15T00:23:42;19.60;67.00
35325;DHT22;35135;47.510;19.036;2022-11-15T00:26:12;19.60;67.00
35325;DHT22;35135;47.510;19.036;2022-11-15T00:28:38;19.60;67.00
35325;DHT22;35135;47.510;19.036;2022-11-15T00:31:06;19.60;66.90
35325;DHT22;35135;47.510;19.036;2022-11-15T00:33:32;19.60;66.90
35325;DHT22;35135;47.510;19.036;2022-11-15T00:36:03;19.60;66.90
35325;DHT22;35135;47.510;19.036;2022-11-15T00:38:37;19.50;66.80
35325;DHT22;35135;47.510;19.036;2022-11-15T00:41:04;19.50;66.80
35325;DHT22;35135;47.510;19.036;2022-11-15T00:43:30;19.60;66.90
35325;DHT22;35135;47.510;19.036;2022-11-15T00:45:56;19.60;66.90
35325;DHT22;35135;47.510;19.036;2022-11-15T00:48:22;19.60;66.90
35325;DHT22;35135;47.510;19.036;2022-11-15T00:50:48;19.50;66.80
35325;DHT22;35135;47.510;19.036;2022-11-15T00:53:14;19.50;66.80
35325;DHT22;35135;47.510;19.036;2022-11-15T00:55:39;19.50;66.80
35325;DHT22;35135;47.510;19.036;2022-11-15T00:58:05;19.50;66.70
35325;DHT22;35135;47.510;19.036;2022-11-15T01:00:31;19.50;66.80
35325;DHT22;35135;47.510;19.036;2022-11-15T01:02:56;19.50;66.80
35325;DHT22;35135;47.510;19.036;2022-11-15T01:05:22;19.50;66.80
35325;DHT22;35135;47.510;19.036;2022-11-15T01:07:54;19.50;66.70
35325;DHT22;35135;47.510;19.036;2022-11-15T01:10:21;19.50;66.80
35325;DHT22;35135;47.510;19.036;2022-11-15T01:12:47;19.50;66.80
35325;DHT22;35135;47.510;19.036;2022-11-15T01:15:12;19.50;67.30
35325;DHT22;35135;47.510;19.036;2022-11-15T01:17:38;19.50;66.70
35325;DHT22;35135;47.510;19.036;2022-11-15T01:20:04;19.50;66.70
35325;DHT22;35135;47.510;19.036;2022-11-15T01:22:30;19.50;66.70
35325;DHT22;35135;47.510;19.036;2022-11-15T01:24:56;19.50;66.70
35325;DHT22;35135;47.510;19.036;2022-11-15T01:27:21;19.50;66.70
35325;DHT22;35135;47.510;19.036;2022-11-15T01:29:47;19.50;66.70
35325;DHT22;35135;47.510;19.036;2022-11-15T01:32:13;19.50;66.70
35325;DHT22;35135;47.510;19.036;2022-11-15T01:34:38;19.50;66.70
35325;DHT22;35135;47.510;19.036;2022-11-15T01:37:04;19.50;66.70
35325;DHT22;35135;47.510;19.036;2022-11-15T01:39:30;19.50;66.70
35325;DHT22;35135;47.510;19.036;2022-11-15T01:41:55;19.50;66.60
35325;DHT22;35135;47.510;19.036;2022-11-15T01:44:41;19.50;66.70
35325;DHT22;35135;47.510;19.036;2022-11-15T01:47:16;19.50;66.60
35325;DHT22;35135;47.510;19.036;2022-11-15T01:50:10;19.50;66.60
35325;DHT22;35135;47.510;19.036;2022-11-15T01:52:35;19.50;66.60
35325;DHT22;35135;47.510;19.036;2022-11-15T01:55:08;19.50;66.60
35325;DHT22;35135;47.510;19.036;2022-11-15T01:57:35;19.40;66.60
35325;DHT22;35135;47.510;19.036;2022-11-15T02:00:03;19.50;66.60
35325;DHT22;35135;47.510;19.036;2022-11-15T02:02:29;19.50;66.60
35325;DHT22;35135;47.510;19.036;2022-11-15T02:04:54;19.50;66.60
35325;DHT22;35135;47.510;19.036;2022-11-15T02:07:21;19.50;66.60
35325;DHT22;35135;47.510;19.036;2022-11-15T02:09:48;19.50;66.60
35325;DHT22;35135;47.510;19.036;2022-11-15T02:12:17;19.50;66.60
35325;DHT22;35135;47.510;19.036;2022-11-15T02:14:48;19.40;66.50
35325;DHT22;35135;47.510;19.036;2022-11-15T02:20:51;19.50;66.50
35325;DHT22;35135;47.510;19.036;2022-11-15T02:31:14;19.40;66.50
35325;DHT22;35135;47.510;19.036;2022-11-15T02:36:55;19.40;66.40
35325;DHT22;35135;47.510;19.036;2022-11-15T02:39:34;19.40;66.40
35325;DHT22;35135;47.510;19.036;2022-11-15T02:42:08;19.40;66.50
35325;DHT22;35135;47.510;19.036;2022-11-15T02:44:56;19.40;66.50
35325;DHT22;35135;47.510;19.036;2022-11-15T02:47:24;19.40;66.40
35325;DHT22;35135;47.510;19.036;2022-11-15T02:49:54;19.40;66.50
35325;DHT22;35135;47.510;19.036;2022-11-15T02:52:23;19.40;66.40
35325;DHT22;35135;47.510;19.036;2022-11-15T03:00:11;19.40;66.40
35325;DHT22;35135;47.510;19.036;2022-11-15T03:05:23;19.40;66.40
35325;DHT22;35135;47.510;19.036;2022-11-15T03:10:46;19.40;66.40
35325;DHT22;35135;47.510;19.036;2022-11-15T03:13:26;19.40;66.40
35325;DHT22;35135;47.510;19.036;2022-11-15T03:18:35;19.40;66.40
35325;DHT22;35135;47.510;19.036;2022-11-15T03:21:04;19.40;66.40
35325;DHT22;35135;47.510;19.036;2022-11-15T03:23:31;19.40;66.30
35325;DHT22;35135;47.510;19.036;2022-11-15T03:26:00;19.40;66.40
35325;DHT22;35135;47.510;19.036;2022-11-15T03:31:13;19.40;66.30
35325;DHT22;35135;47.510;19.036;2022-11-15T03:34:00;19.40;66.30
35325;DHT22;35135;47.510;19.036;2022-11-15T03:36:30;19.40;66.30
35325;DHT22;35135;47.510;19.036;2022-11-15T03:39:00;19.30;66.30
35325;DHT22;35135;47.510;19.036;2022-11-15T03:41:41;19.40;66.30
35325;DHT22;35135;47.510;19.036;2022-11-15T03:47:06;19.40;66.40
35325;DHT22;35135;47.510;19.036;2022-11-15T03:49:34;19.40;66.30
35325;DHT22;35135;47.510;19.036;2022-11-15T03:52:02;19.30;66.30
35325;DHT22;35135;47.510;19.036;2022-11-15T03:54:29;19.30;66.30
35325;DHT22;35135;47.510;19.036;2022-11-15T03:56:55;19.40;66.30
35325;DHT22;35135;47.510;19.036;2022-11-15T03:59:20;19.40;66.30
35325;DHT22;35135;47.510;19.036;2022-11-15T04:01:46;19.30;66.20
35325;DHT22;35135;47.510;19.036;2022-11-15T04:04:12;19.30;66.30
35325;DHT22;35135;47.510;19.036;2022-11-15T04:06:37;19.30;66.20
35325;DHT22;35135;47.510;19.036;2022-11-15T04:09:03;19.30;66.20
35325;DHT22;35135;47.510;19.036;2022-11-15T04:11:29;19.30;66.20
35325;DHT22;35135;47.510;19.036;2022-11-15T04:13:55;19.30;66.20
35325;DHT22;35135;47.510;19.036;2022-11-15T04:16:20;19.30;66.20
35325;DHT22;35135;47.510;19.036;2022-11-15T04:18:46;19.30;66.20
35325;DHT22;35135;47.510;19.036;2022-11-15T04:21:31;19.30;66.20
35325;DHT22;35135;47.510;19.036;2022-11-15T04:24:15;19.30;66.20
35325;DHT22;35135;47.510;19.036;2022-11-15T04:26:41;19.30;66.20
35325;DHT22;35135;47.510;19.036;2022-11-15T04:29:07;19.30;66.20
35325;DHT22;35135;47.510;19.036;2022-11-15T04:31:50;19.30;66.20
35325;DHT22;35135;47.510;19.036;2022-11-15T04:34:16;19.30;66.20
35325;DHT22;35135;47.510;19.036;2022-11-15T04:36:42;19.30;66.20
35325;DHT22;35135;47.510;19.036;2022-11-15T04:39:26;19.30;66.20
35325;DHT22;35135;47.510;19.036;2022-11-15T04:41:51;19.30;66.20
35325;DHT22;35135;47.510;19.036;2022-11-15T04:44:17;19.30;66.20
35325;DHT22;35135;47.510;19.036;2022-11-15T04:46:42;19.30;66.10
35325;DHT22;35135;47.510;19.036;2022-11-15T04:49:08;19.30;66.10
35325;DHT22;35135;47.510;19.036;2022-11-15T04:51:33;19.30;66.20
35325;DHT22;35135;47.510;19.036;2022-11-15T04:53:59;19.30;66.20
35325;DHT22;35135;47.510;19.036;2022-11-15T04:56:25;19.30;66.10
35325;DHT22;35135;47.510;19.036;2022-11-15T04:58:50;19.30;66.10
35325;DHT22;35135;47.510;19.036;2022-11-15T05:01:16;19.30;66.10
35325;DHT22;35135;47.510;19.036;2022-11-15T05:03:43;19.30;66.20
35325;DHT22;35135;47.510;19.036;2022-11-15T05:06:28;19.30;66.10
35325;DHT22;35135;47.510;19.036;2022-11-15T05:08:53;19.30;66.20
35325;DHT22;35135;47.510;19.036;2022-11-15T05:11:19;19.30;66.10
35325;DHT22;35135;47.510;19.036;2022-11-15T05:13:45;19.30;66.10
35325;DHT22;35135;47.510;19.036;2022-11-15T05:16:11;19.30;66.10
35325;DHT22;35135;47.510;19.036;2022-11-15T05:18:37;19.30;66.10
35325;DHT22;35135;47.510;19.036;2022-11-15T05:21:07;19.30;66.10
35325;DHT22;35135;47.510;19.036;2022-11-15T05:23:33;19.30;66.10
35325;DHT22;35135;47.510;19.036;2022-11-15T05:26:00;19.30;66.10
35325;DHT22;35135;47.510;19.036;2022-11-15T05:28:26;19.30;66.20
35325;DHT22;35135;47.510;19.036;2022-11-15T05:30:51;19.30;66.20
35325;DHT22;35135;47.510;19.036;2022-11-15T05:33:17;19.30;66.20
35325;DHT22;35135;47.510;19.036;2022-11-15T05:35:48;19.30;66.20
35325;DHT22;35135;47.510;19.036;2022-11-15T05:38:15;19.30;66.20
35325;DHT22;35135;47.510;19.036;2022-11-15T05:40:41;19.30;66.10
35325;DHT22;35135;47.510;19.036;2022-11-15T05:43:07;19.30;66.10
35325;DHT22;35135;47.510;19.036;2022-11-15T05:45:34;19.30;66.10
35325;DHT22;35135;47.510;19.036;2022-11-15T05:48:05;19.30;66.10
35325;DHT22;35135;47.510;19.036;2022-11-15T05:50:31;19.30;66.20
35325;DHT22;35135;47.510;19.036;2022-11-15T05:52:57;19.30;66.00
35325;DHT22;35135;47.510;19.036;2022-11-15T05:55:23;19.30;66.00
35325;DHT22;35135;47.510;19.036;2022-11-15T05:57:49;19.30;66.00
35325;DHT22;35135;47.510;19.036;2022-11-15T06:00:15;19.30;66.00
35325;DHT22;35135;47.510;19.036;2022-11-15T06:02:40;19.30;66.00
35325;DHT22;35135;47.510;19.036;2022-11-15T06:05:06;19.30;65.90
35325;DHT22;35135;47.510;19.036;2022-11-15T06:07:31;19.30;66.00
35325;DHT22;35135;47.510;19.036;2022-11-15T06:09:57;19.30;65.90
35325;DHT22;35135;47.510;19.036;2022-11-15T06:12:23;19.30;65.90
35325;DHT22;35135;47.510;19.036;2022-11-15T06:14:48;19.30;65.90
35325;DHT22;35135;47.510;19.036;2022-11-15T06:17:14;19.30;66.00
35325;DHT22;35135;47.510;19.036;2022-11-15T06:19:39;19.30;66.00
35325;DHT22;35135;47.510;19.036;2022-11-15T06:22:05;19.20;65.90
35325;DHT22;35135;47.510;19.036;2022-11-15T06:24:31;19.30;65.90
35325;DHT22;35135;47.510;19.036;2022-11-15T06:26:56;19.30;65.80
35325;DHT22;35135;47.510;19.036;2022-11-15T06:29:23;19.30;65.80
35325;DHT22;35135;47.510;19.036;2022-11-15T06:31:48;19.30;65.80
35325;DHT22;35135;47.510;19.036;2022-11-15T06:34:14;19.30;65.80
35325;DHT22;35135;47.510;19.036;2022-11-15T06:36:40;19.30;65.80
35325;DHT22;35135;47.510;19.036;2022-11-15T06:39:05;19.30;65.80
35325;DHT22;35135;47.510;19.036;2022-11-15T06:41:34;19.30;65.70
35325;DHT22;35135;47.510;19.036;2022-11-15T06:43:59;19.30;65.90
35325;DHT22;35135;47.510;19.036;2022-11-15T06:46:25;19.30;65.80
35325;DHT22;35135;47.510;19.036;2022-11-15T06:48:51;19.30;65.90
35325;DHT22;35135;47.510;19.036;2022-11-15T06:51:17;19.30;65.90
35325;DHT22;35135;47.510;19.036;2022-11-15T06:53:43;19.30;65.80
35325;DHT22;35135;47.510;19.036;2022-11-15T06:56:09;19.30;65.80
35325;DHT22;35135;47.510;19.036;2022-11-15T06:58:35;19.30;65.80
35325;DHT22;35135;47.510;19.036;2022-11-15T07:01:07;19.30;65.70
35325;DHT22;35135;47.510;19.036;2022-11-15T07:03:40;19.30;65.80
35325;DHT22;35135;47.510;19.036;2022-11-15T07:06:07;19.20;65.60
35325;DHT22;35135;47.510;19.036;2022-11-15T07:08:33;19.30;65.70
35325;DHT22;35135;47.510;19.036;2022-11-15T07:11:00;19.20;65.60
35325;DHT22;35135;47.510;19.036;2022-11-15T07:13:28;19.30;65.60
35325;DHT22;35135;47.510;19.036;2022-11-15T07:15:54;19.30;65.70
35325;DHT22;35135;47.510;19.036;2022-11-15T07:18:20;19.30;65.60
35325;DHT22;35135;47.510;19.036;2022-11-15T07:20:46;19.20;65.60
35325;DHT22;35135;47.510;19.036;2022-11-15T07:23:12;19.20;66.30
35325;DHT22;35135;47.510;19.036;2022-11-15T07:25:37;19.30;65.70
35325;DHT22;35135;47.510;19.036;2022-11-15T07:28:03;19.30;65.70
35325;DHT22;35135;47.510;19.036;2022-11-15T07:30:29;19.30;65.70
35325;DHT22;35135;47.510;19.036;2022-11-15T07:32:56;19.30;65.70
35325;DHT22;35135;47.510;19.036;2022-11-15T07:35:23;19.30;65.50
35325;DHT22;35135;47.510;19.036;2022-11-15T07:37:56;19.30;65.60
35325;DHT22;35135;47.510;19.036;2022-11-15T07:40:22;19.30;65.60
35325;DHT22;35135;47.510;19.036;2022-11-15T07:42:47;19.30;65.50
35325;DHT22;35135;47.510;19.036;2022-11-15T07:45:23;19.30;65.60
35325;DHT22;35135;47.510;19.036;2022-11-15T07:47:51;19.30;65.60
35325;DHT22;35135;47.510;19.036;2022-11-15T07:50:17;19.30;65.60
35325;DHT22;35135;47.510;19.036;2022-11-15T07:52:43;19.30;65.60
35325;DHT22;35135;47.510;19.036;2022-11-15T07:55:09;19.30;65.50
35325;DHT22;35135;47.510;19.036;2022-11-15T07:57:35;19.30;65.40
35325;DHT22;35135;47.510;19.036;2022-11-15T08:00:01;19.30;65.30
35325;DHT22;35135;47.510;19.036;2022-11-15T08:02:27;19.30;65.40
35325;DHT22;35135;47.510;19.036;2022-11-15T08:04:52;19.30;65.40
35325;DHT22;35135;47.510;19.036;2022-11-15T08:07:18;19.30;65.20
35325;DHT22;35135;47.510;19.036;2022-11-15T08:09:43;19.30;65.30
35325;DHT22;35135;47.510;19.036;2022-11-15T08:12:09;19.30;65.20
35325;DHT22;35135;47.510;19.036;2022-11-15T08:14:35;19.30;65.20
35325;DHT22;35135;47.510;19.036;2022-11-15T08:17:01;19.30;65.20
35325;DHT22;35135;47.510;19.036;2022-11-15T08:19:27;19.30;65.20
35325;DHT22;35135;47.510;19.036;2022-11-15T08:21:52;19.30;65.20
35325;DHT22;35135;47.510;19.036;2022-11-15T08:24:18;19.30;65.20
35325;DHT22;35135;47.510;19.036;2022-11-15T08:26:43;19.30;65.20
35325;DHT22;35135;47.510;19.036;2022-11-15T08:29:09;19.30;64.90
35325;DHT22;35135;47.510;19.036;2022-11-15T08:31:35;19.30;65.10
35325;DHT22;35135;47.510;19.036;2022-11-15T08:34:05;19.30;65.10
35325;DHT22;35135;47.510;19.036;2022-11-15T08:36:31;19.30;65.10
35325;DHT22;35135;47.510;19.036;2022-11-15T08:38:57;19.30;65.70
35325;DHT22;35135;47.510;19.036;2022-11-15T08:41:35;19.30;65.20
35325;DHT22;35135;47.510;19.036;2022-11-15T08:44:01;19.30;65.20
35325;DHT22;35135;47.510;19.036;2022-11-15T08:46:27;19.30;65.20
35325;DHT22;35135;47.510;19.036;2022-11-15T08:48:52;19.30;65.20
35325;DHT22;35135;47.510;19.036;2022-11-15T08:51:18;19.30;65.20
35325;DHT22;35135;47.510;19.036;2022-11-15T08:53:44;19.30;65.20
35325;DHT22;35135;47.510;19.036;2022-11-15T08:56:12;19.30;65.30
35325;DHT22;35135;47.510;19.036;2022-11-15T08:58:38;19.30;65.20
35325;DHT22;35135;47.510;19.036;2022-11-15T09:01:04;19.30;65.20
35325;DHT22;35135;47.510;19.036;2022-11-15T09:03:30;19.30;65.20
35325;DHT22;35135;47.510;19.036;2022-11-15T09:06:00;19.30;65.30
35325;DHT22;35135;47.510;19.036;2022-11-15T09:08:29;19.30;65.30
35325;DHT22;35135;47.510;19.036;2022-11-15T09:10:55;19.30;65.30
35325;DHT22;35135;47.510;19.036;2022-11-15T09:13:21;19.30;65.30
35325;DHT22;35135;47.510;19.036;2022-11-15T09:15:47;19.30;65.40
35325;DHT22;35135;47.510;19.036;2022-11-15T09:18:13;19.30;65.30
35325;DHT22;35135;47.510;19.036;2022-11-15T09:20:38;19.30;65.30
35325;DHT22;35135;47.510;19.036;2022-11-15T09:23:05;19.30;65.40
35325;DHT22;35135;47.510;19.036;2022-11-15T09:25:31;19.30;65.20
35325;DHT22;35135;47.510;19.036;2022-11-15T09:27:57;19.40;65.40
35325;DHT22;35135;47.510;19.036;2022-11-15T09:30:24;19.30;65.40
35325;DHT22;35135;47.510;19.036;2022-11-15T09:32:50;19.40;65.40
35325;DHT22;35135;47.510;19.036;2022-11-15T09:35:16;19.40;65.40
35325;DHT22;35135;47.510;19.036;2022-11-15T09:37:42;19.40;65.40
35325;DHT22;35135;47.510;19.036;2022-11-15T09:40:13;19.40;65.50
35325;DHT22;35135;47.510;19.036;2022-11-15T09:43:36;19.40;66.10
35325;DHT22;35135;47.510;19.036;2022-11-15T09:49:17;19.40;65.90
35325;DHT22;35135;47.510;19.036;2022-11-15T09:51:49;19.40;66.00
35325;DHT22;35135;47.510;19.036;2022-11-15T09:54:36;19.40;66.10
35325;DHT22;35135;47.510;19.036;2022-11-15T09:57:15;19.40;65.90
35325;DHT22;35135;47.510;19.036;2022-11-15T10:04:50;19.40;66.00
35325;DHT22;35135;47.510;19.036;2022-11-15T10:12:17;19.40;66.30
35325;DHT22;35135;47.510;19.036;2022-11-15T10:14:43;19.40;66.40
35325;DHT22;35135;47.510;19.036;2022-11-15T10:22:47;19.40;66.70
35325;DHT22;35135;47.510;19.036;2022-11-15T10:25:19;19.40;67.20
35325;DHT22;35135;47.510;19.036;2022-11-15T10:27:52;19.40;67.60
35325;DHT22;35135;47.510;19.036;2022-11-15T10:30:19;19.40;67.40
35325;DHT22;35135;47.510;19.036;2022-11-15T10:32:46;19.40;68.50
35325;DHT22;35135;47.510;19.036;2022-11-15T10:35:19;19.40;67.40
35325;DHT22;35135;47.510;19.036;2022-11-15T10:37:45;19.40;67.40
35325;DHT22;35135;47.510;19.036;2022-11-15T10:40:24;19.40;67.80
35325;DHT22;35135;47.510;19.036;2022-11-15T10:45:34;19.40;67.70
35325;DHT22;35135;47.510;19.036;2022-11-15T10:48:26;19.40;68.20
35325;DHT22;35135;47.510;19.036;2022-11-15T10:50:53;19.40;67.90
35325;DHT22;35135;47.510;19.036;2022-11-15T10:53:36;19.50;68.00
35325;DHT22;35135;47.510;19.036;2022-11-15T10:56:07;19.50;68.10
35325;DHT22;35135;47.510;19.036;2022-11-15T10:58:43;19.50;68.10
35325;DHT22;35135;47.510;19.036;2022-11-15T11:03:36;19.50;68.50
35325;DHT22;35135;47.510;19.036;2022-11-15T11:06:11;19.50;69.40
35325;DHT22;35135;47.510;19.036;2022-11-15T11:08:37;19.50;68.70
35325;DHT22;35135;47.510;19.036;2022-11-15T11:11:04;19.50;68.60
35325;DHT22;35135;47.510;19.036;2022-11-15T11:13:35;19.50;69.90
35325;DHT22;35135;47.510;19.036;2022-11-15T11:21:51;19.50;68.60
35325;DHT22;35135;47.510;19.036;2022-11-15T11:24:32;19.50;68.60
35325;DHT22;35135;47.510;19.036;2022-11-15T11:35:15;19.50;69.00
35325;DHT22;35135;47.510;19.036;2022-11-15T11:37:52;19.50;68.60
35325;DHT22;35135;47.510;19.036;2022-11-15T11:48:42;19.50;69.00
35325;DHT22;35135;47.510;19.036;2022-11-15T11:51:39;19.50;68.60
35325;DHT22;35135;47.510;19.036;2022-11-15T11:54:29;19.50;68.70
35325;DHT22;35135;47.510;19.036;2022-11-15T11:56:57;19.50;68.50
35325;DHT22;35135;47.510;19.036;2022-11-15T12:02:45;19.50;68.50
35325;DHT22;35135;47.510;19.036;2022-11-15T12:05:26;19.50;68.60
35325;DHT22;35135;47.510;19.036;2022-11-15T12:10:37;19.50;69.30
35325;DHT22;35135;47.510;19.036;2022-11-15T12:13:15;19.50;69.00
35325;DHT22;35135;47.510;19.036;2022-11-15T12:15:50;19.50;69.50
35325;DHT22;35135;47.510;19.036;2022-11-15T12:18:17;19.50;68.60
35325;DHT22;35135;47.510;19.036;2022-11-15T12:20:56;19.50;69.40
35325;DHT22;35135;47.510;19.036;2022-11-15T12:23:27;19.50;68.80
35325;DHT22;35135;47.510;19.036;2022-11-15T12:31:14;19.50;68.50
35325;DHT22;35135;47.510;19.036;2022-11-15T12:33:46;19.50;68.20
35325;DHT22;35135;47.510;19.036;2022-11-15T12:36:35;19.50;68.30
35325;DHT22;35135;47.510;19.036;2022-11-15T12:39:06;19.50;68.30
35325;DHT22;35135;47.510;19.036;2022-11-15T12:41:33;19.50;68.10
35325;DHT22;35135;47.510;19.036;2022-11-15T12:43:59;19.60;68.10
35325;DHT22;35135;47.510;19.036;2022-11-15T12:48:59;19.50;68.20
35325;DHT22;35135;47.510;19.036;2022-11-15T12:59:54;19.50;68.00
35325;DHT22;35135;47.510;19.036;2022-11-15T13:17:55;19.30;66.00
35325;DHT22;35135;47.510;19.036;2022-11-15T13:20:31;19.30;66.00
35325;DHT22;35135;47.510;19.036;2022-11-15T13:23:01;19.40;66.20
35325;DHT22;35135;47.510;19.036;2022-11-15T13:30:41;19.40;66.20
35325;DHT22;35135;47.510;19.036;2022-11-15T13:39:04;19.40;66.50
35325;DHT22;35135;47.510;19.036;2022-11-15T13:41:33;19.40;66.50
35325;DHT22;35135;47.510;19.036;2022-11-15T13:44:00;19.40;66.50
35325;DHT22;35135;47.510;19.036;2022-11-15T13:46:28;19.50;66.60
35325;DHT22;35135;47.510;19.036;2022-11-15T13:49:04;19.40;66.50
35325;DHT22;35135;47.510;19.036;2022-11-15T13:51:33;19.50;66.50
35325;DHT22;35135;47.510;19.036;2022-11-15T13:54:16;19.40;66.50
35325;DHT22;35135;47.510;19.036;2022-11-15T13:57:27;19.50;66.40
35325;DHT22;35135;47.510;19.036;2022-11-15T13:59:35;19.50;66.40
35325;DHT22;35135;47.510;19.036;2022-11-15T14:02:19;19.50;66.50
35325;DHT22;35135;47.510;19.036;2022-11-15T14:05:35;19.50;66.70
35325;DHT22;35135;47.510;19.036;2022-11-15T14:07:36;19.50;66.70
35325;DHT22;35135;47.510;19.036;2022-11-15T14:10:30;19.50;66.70
35325;DHT22;35135;47.510;19.036;2022-11-15T14:12:56;19.50;66.70
35325;DHT22;35135;47.510;19.036;2022-11-15T14:17:54;19.50;66.90
35325;DHT22;35135;47.510;19.036;2022-11-15T14:22:57;19.50;66.80
35325;DHT22;35135;47.510;19.036;2022-11-15T14:25:31;19.50;67.00
35325;DHT22;35135;47.510;19.036;2022-11-15T14:30:41;19.50;66.90
35325;DHT22;35135;47.510;19.036;2022-11-15T14:35:54;19.50;66.80
35325;DHT22;35135;47.510;19.036;2022-11-15T14:38:21;19.50;66.80
35325;DHT22;35135;47.510;19.036;2022-11-15T14:40:47;19.50;66.80
35325;DHT22;35135;47.510;19.036;2022-11-15T14:43:13;19.50;66.80
35325;DHT22;35135;47.510;19.036;2022-11-15T14:45:39;19.50;66.80
35325;DHT22;35135;47.510;19.036;2022-11-15T14:48:05;19.50;66.80
35325;DHT22;35135;47.510;19.036;2022-11-15T14:50:32;19.40;66.70
35325;DHT22;35135;47.510;19.036;2022-11-15T14:52:58;19.50;66.70
35325;DHT22;35135;47.510;19.036;2022-11-15T14:55:26;19.50;66.70
35325;DHT22;35135;47.510;19.036;2022-11-15T14:57:54;19.50;66.60
35325;DHT22;35135;47.510;19.036;2022-11-15T15:00:20;19.50;66.60
35325;DHT22;35135;47.510;19.036;2022-11-15T15:02:47;19.40;66.60
35325;DHT22;35135;47.510;19.036;2022-11-15T15:05:17;19.40;66.50
35325;DHT22;35135;47.510;19.036;2022-11-15T15:07:43;19.50;66.50
35325;DHT22;35135;47.510;19.036;2022-11-15T15:10:09;19.40;66.50
35325;DHT22;35135;47.510;19.036;2022-11-15T15:12:35;19.40;66.50
35325;DHT22;35135;47.510;19.036;2022-11-15T15:15:01;19.40;66.50
35325;DHT22;35135;47.510;19.036;2022-11-15T15:17:26;19.50;66.50
35325;DHT22;35135;47.510;19.036;2022-11-15T15:19:52;19.40;66.50
35325;DHT22;35135;47.510;19.036;2022-11-15T15:22:19;19.40;66.50
35325;DHT22;35135;47.510;19.036;2022-11-15T15:24:47;19.50;66.50
35325;DHT22;35135;47.510;19.036;2022-11-15T15:27:13;19.40;66.50
35325;DHT22;35135;47.510;19.036;2022-11-15T15:29:39;19.50;66.60
35325;DHT22;35135;47.510;19.036;2022-11-15T15:32:05;19.40;66.60
35325;DHT22;35135;47.510;19.036;2022-11-15T15:34:31;19.40;66.60
35325;DHT22;35135;47.510;19.036;2022-11-15T15:37:25;19.40;66.70
35325;DHT22;35135;47.510;19.036;2022-11-15T15:39:52;19.50;66.70
35325;DHT22;35135;47.510;19.036;2022-11-15T15:42:19;19.40;66.70
35325;DHT22;35135;47.510;19.036;2022-11-15T15:44:49;19.50;66.70
35325;DHT22;35135;47.510;19.036;2022-11-15T15:47:18;19.40;66.50
35325;DHT22;35135;47.510;19.036;2022-11-15T15:49:44;19.50;66.60
35325;DHT22;35135;47.510;19.036;2022-11-15T15:52:10;19.40;66.60
35325;DHT22;35135;47.510;19.036;2022-11-15T15:54:37;19.40;66.60
35325;DHT22;35135;47.510;19.036;2022-11-15T15:57:02;19.40;66.70
35325;DHT22;35135;47.510;19.036;2022-11-15T15:59:28;19.50;66.70
35325;DHT22;35135;47.510;19.036;2022-11-15T16:01:54;19.50;66.80
35325;DHT22;35135;47.510;19.036;2022-11-15T16:04:19;19.50;66.80
35325;DHT22;35135;47.510;19.036;2022-11-15T16:06:45;19.40;66.70
35325;DHT22;35135;47.510;19.036;2022-11-15T16:09:15;19.50;66.90
35325;DHT22;35135;47.510;19.036;2022-11-15T16:11:41;19.50;66.80
35325;DHT22;35135;47.510;19.036;2022-11-15T16:14:08;19.40;66.90
35325;DHT22;35135;47.510;19.036;2022-11-15T16:16:34;19.50;66.90
35325;DHT22;35135;47.510;19.036;2022-11-15T16:19:01;19.40;66.90
35325;DHT22;35135;47.510;19.036;2022-11-15T16:21:29;19.40;67.00
35325;DHT22;35135;47.510;19.036;2022-11-15T16:23:55;19.40;66.90
35325;DHT22;35135;47.510;19.036;2022-11-15T16:26:25;19.50;67.40
35325;DHT22;35135;47.510;19.036;2022-11-15T16:28:51;19.40;67.70
35325;DHT22;35135;47.510;19.036;2022-11-15T16:31:17;19.50;67.60
35325;DHT22;35135;47.510;19.036;2022-11-15T16:33:46;19.50;67.80
35325;DHT22;35135;47.510;19.036;2022-11-15T16:36:22;19.50;67.80
35325;DHT22;35135;47.510;19.036;2022-11-15T16:38:48;19.60;68.70
35325;DHT22;35135;47.510;19.036;2022-11-15T16:41:14;19.60;68.70
35325;DHT22;35135;47.510;19.036;2022-11-15T16:43:42;19.60;68.70
35325;DHT22;35135;47.510;19.036;2022-11-15T16:46:34;19.60;68.90
35325;DHT22;35135;47.510;19.036;2022-11-15T16:49:00;19.60;69.00
35325;DHT22;35135;47.510;19.036;2022-11-15T16:51:25;19.70;69.40
35325;DHT22;35135;47.510;19.036;2022-11-15T16:53:51;19.70;69.40
35325;DHT22;35135;47.510;19.036;2022-11-15T16:56:25;19.80;69.50
35325;DHT22;35135;47.510;19.036;2022-11-15T16:58:55;19.80;69.30
35325;DHT22;35135;47.510;19.036;2022-11-15T17:01:28;19.90;69.30
35325;DHT22;35135;47.510;19.036;2022-11-15T17:03:54;20.00;69.00
35325;DHT22;35135;47.510;19.036;2022-11-15T17:06:21;20.10;68.80
35325;DHT22;35135;47.510;19.036;2022-11-15T17:08:47;20.10;68.70
35325;DHT22;35135;47.510;19.036;2022-11-15T17:11:18;20.20;68.50
35325;DHT22;35135;47.510;19.036;2022-11-15T17:13:45;20.30;68.60
35325;DHT22;35135;47.510;19.036;2022-11-15T17:16:13;20.40;68.30
35325;DHT22;35135;47.510;19.036;2022-11-15T17:18:40;20.40;68.00
35325;DHT22;35135;47.510;19.036;2022-11-15T17:21:18;20.50;67.80
35325;DHT22;35135;47.510;19.036;2022-11-15T17:23:44;20.50;67.60
35325;DHT22;35135;47.510;19.036;2022-11-15T17:26:12;20.50;67.50
35325;DHT22;35135;47.510;19.036;2022-11-15T17:28:38;20.60;67.50
35325;DHT22;35135;47.510;19.036;2022-11-15T17:31:12;20.60;67.50
35325;DHT22;35135;47.510;19.036;2022-11-15T17:33:38;20.60;67.30
35325;DHT22;35135;47.510;19.036;2022-11-15T17:36:07;20.60;67.30
35325;DHT22;35135;47.510;19.036;2022-11-15T17:38:33;20.50;67.10
35325;DHT22;35135;47.510;19.036;2022-11-15T17:43:30;20.50;67.10
35325;DHT22;35135;47.510;19.036;2022-11-15T17:45:56;20.50;67.00
35325;DHT22;35135;47.510;19.036;2022-11-15T17:48:22;20.50;67.60